createdAt,value
2019-04-16T00:00:04.562Z,3.1
2019-04-16T00:01:04.525Z,2.5
2019-04-16T00:02:03.634Z,3.9
2019-04-16T00:03:03.440Z,3
2019-04-16T00:04:03.514Z,3.2
2019-04-16T00:05:03.508Z,3.6
2019-04-16T00:06:03.432Z,3
2019-04-16T00:07:03.545Z,3.2
2019-04-16T00:08:08.351Z,3.2
2019-04-16T00:09:04.649Z,3.4
2019-04-16T00:10:03.860Z,3.3
2019-04-16T00:11:03.958Z,3.6
2019-04-16T00:12:04.042Z,4
2019-04-16T00:13:04.079Z,2.6
2019-04-16T00:14:04.965Z,4.5
2019-04-16T00:15:04.088Z,3.2
2019-04-16T00:16:05.231Z,3.6
2019-04-16T00:17:04.086Z,3.1
2019-04-16T00:18:04.289Z,5
2019-04-16T00:19:06.002Z,2.7
2019-04-16T00:20:06.563Z,2.9
2019-04-16T00:21:06.387Z,2.3
2019-04-16T00:22:05.337Z,2.3
2019-04-16T00:23:05.606Z,3
2019-04-16T00:24:04.510Z,3.5
2019-04-16T00:25:04.558Z,4.2
2019-04-16T00:26:04.589Z,3.2
2019-04-16T00:27:04.502Z,3.1
2019-04-16T00:28:04.659Z,3.5
2019-04-16T00:29:04.670Z,4.8
2019-04-16T00:30:05.375Z,2.5
2019-04-16T00:31:05.589Z,4.3
2019-04-16T00:32:07.778Z,3.6
2019-04-16T00:33:07.478Z,2.4
2019-04-16T00:34:05.958Z,3
2019-04-16T00:35:05.078Z,3.8
2019-04-16T00:36:05.144Z,3.8
2019-04-16T00:37:05.286Z,2.4
2019-04-16T00:38:05.395Z,4.2
2019-04-16T00:39:05.436Z,4.5
2019-04-16T00:40:05.442Z,3
2019-04-16T00:41:05.466Z,4.2
2019-04-16T00:42:05.571Z,3
2019-04-16T00:43:05.626Z,3.2
2019-04-16T00:44:05.587Z,4.4
2019-04-16T00:45:05.624Z,3.4
2019-04-16T00:46:08.153Z,3.2
2019-04-16T00:47:06.868Z,3.9
2019-04-16T00:48:05.886Z,3.7
2019-04-16T00:49:05.915Z,4
2019-04-16T00:50:05.880Z,2.9
2019-04-16T00:51:06.019Z,3.4
2019-04-16T00:52:06.994Z,3.6
2019-04-16T00:53:08.040Z,3.5
2019-04-16T00:54:09.646Z,3.7
2019-04-16T00:55:07.287Z,2.4
2019-04-16T00:56:07.091Z,2.4
2019-04-16T00:57:06.407Z,4.5
2019-04-16T00:58:06.252Z,3.5
2019-04-16T00:59:06.233Z,3
2019-04-16T01:00:06.272Z,3
2019-04-16T01:01:06.386Z,3.6
2019-04-16T01:02:06.483Z,3.3
2019-04-16T01:03:06.686Z,3.4
2019-04-16T01:04:06.458Z,6.2
2019-04-16T01:05:06.725Z,3.4
2019-04-16T01:06:08.032Z,2.9
2019-04-16T01:07:06.622Z,2.5
2019-04-16T01:08:06.594Z,3.7
2019-04-16T01:09:06.748Z,3
2019-04-16T01:10:06.814Z,2.7
2019-04-16T01:11:06.688Z,2.8
2019-04-16T01:12:06.996Z,3.7
2019-04-16T01:13:06.886Z,2.9
2019-04-16T01:14:06.923Z,2.8
2019-04-16T01:15:06.911Z,4
2019-04-16T01:16:06.931Z,3
2019-04-16T01:17:07.061Z,3.3
2019-04-16T01:18:07.734Z,3
2019-04-16T01:19:09.960Z,4.1
2019-04-16T01:20:11.526Z,2.4
2019-04-16T01:21:08.501Z,3.1
2019-04-16T01:22:08.480Z,3.2
2019-04-16T01:23:07.457Z,3.2
2019-04-16T01:24:07.493Z,3.5
2019-04-16T01:25:07.477Z,4.9
2019-04-16T01:26:07.661Z,2.7
2019-04-16T01:27:07.567Z,3.5
2019-04-16T01:28:07.635Z,3.1
2019-04-16T01:29:08.048Z,3
2019-04-16T01:30:07.705Z,3.5
2019-04-16T01:31:08.363Z,3.1
2019-04-16T01:32:11.198Z,3
2019-04-16T01:33:09.055Z,3.1
2019-04-16T01:34:08.992Z,4
2019-04-16T01:35:07.924Z,2.8
2019-04-16T01:36:07.953Z,2.8
2019-04-16T01:37:07.924Z,2.6
2019-04-16T01:38:08.140Z,2.7
2019-04-16T01:39:17.058Z,3.1
2019-04-16T01:40:09.041Z,3
2019-04-16T01:41:07.968Z,3.5
2019-04-16T01:42:07.979Z,3.2
2019-04-16T01:43:08.050Z,2.9
2019-04-16T01:44:08.159Z,3
2019-04-16T01:45:08.080Z,3.1
2019-04-16T01:46:08.168Z,4.3
2019-04-16T01:47:08.153Z,3.2
2019-04-16T01:48:08.405Z,2.6
2019-04-16T01:49:10.211Z,3.4
2019-04-16T01:50:12.705Z,3.1
2019-04-16T01:51:09.458Z,3.5
2019-04-16T01:52:09.628Z,2.7
2019-04-16T01:53:08.651Z,3.6
2019-04-16T01:54:08.666Z,3.1
2019-04-16T01:55:08.637Z,3.1
2019-04-16T01:56:08.680Z,2.9
2019-04-16T01:57:08.754Z,3.4
2019-04-16T01:58:08.776Z,2.7
2019-04-16T01:59:08.837Z,2.7
2019-04-16T02:00:09.113Z,2.2
2019-04-16T02:01:11.097Z,2.9
2019-04-16T02:02:14.497Z,3.7
2019-04-16T02:03:10.089Z,3.5
2019-04-16T02:04:09.126Z,2.5
2019-04-16T02:05:09.319Z,2.6
2019-04-16T02:06:09.337Z,3.6
2019-04-16T02:07:09.465Z,3.7
2019-04-16T02:08:09.638Z,3.4
2019-04-16T02:09:21.579Z,2.9
2019-04-16T02:10:10.735Z,2.8
2019-04-16T02:11:10.999Z,3.9
2019-04-16T02:12:12.728Z,3.3
2019-04-16T02:13:14.487Z,3.5
2019-04-16T02:14:10.918Z,2.5
2019-04-16T02:15:10.851Z,2.4
2019-04-16T02:16:10.144Z,3.4
2019-04-16T02:17:09.978Z,3.1
2019-04-16T02:18:10.047Z,3.1
2019-04-16T02:19:10.018Z,2.8
2019-04-16T02:20:10.034Z,3.3
2019-04-16T02:21:10.919Z,3.7
2019-04-16T02:22:12.496Z,2.9
2019-04-16T02:23:13.426Z,2.6
2019-04-16T02:24:11.283Z,3.4
2019-04-16T02:25:10.248Z,3.3
2019-04-16T02:26:10.284Z,2.9
2019-04-16T02:27:10.494Z,4
2019-04-16T02:28:10.355Z,3
2019-04-16T02:29:11.369Z,2.9
2019-04-16T02:30:10.492Z,3.1
2019-04-16T02:31:15.225Z,3
2019-04-16T02:32:11.561Z,3.3
2019-04-16T02:33:10.522Z,3.5
2019-04-16T02:34:10.600Z,2.8
2019-04-16T02:35:10.555Z,2.5
2019-04-16T02:36:10.642Z,3.2
2019-04-16T02:37:10.654Z,3.6
2019-04-16T02:38:13.136Z,3.9
2019-04-16T02:39:11.709Z,2.8
2019-04-16T02:40:16.537Z,2.7
2019-04-16T02:41:11.693Z,2.8
2019-04-16T02:42:10.695Z,2.5
2019-04-16T02:43:10.818Z,3.3
2019-04-16T02:44:15.860Z,2.8
2019-04-16T02:45:11.901Z,2
2019-04-16T02:46:11.003Z,3.5
2019-04-16T02:47:10.966Z,3
2019-04-16T02:48:14.478Z,2.7
2019-04-16T02:49:12.146Z,2.8
2019-04-16T02:50:11.177Z,2.5
2019-04-16T02:51:11.108Z,2.7
2019-04-16T02:52:16.360Z,2.6
2019-04-16T02:53:12.410Z,2.3
2019-04-16T02:54:11.300Z,3.2
2019-04-16T02:55:11.437Z,3.3
2019-04-16T02:56:16.945Z,2.7
2019-04-16T02:57:12.453Z,2.8
2019-04-16T02:58:11.492Z,3.1
2019-04-16T02:59:13.156Z,2.9
2019-04-16T03:00:11.561Z,2.9
2019-04-16T03:01:12.635Z,2.7
2019-04-16T03:02:11.522Z,3.2
2019-04-16T03:03:11.631Z,2.5
2019-04-16T03:04:11.698Z,3
2019-04-16T03:05:11.758Z,2.6
2019-04-16T03:06:11.818Z,2.6
2019-04-16T03:07:11.856Z,4.2
2019-04-16T03:08:11.952Z,2.6
2019-04-16T03:09:11.897Z,2.4
2019-04-16T03:10:13.381Z,3.2
2019-04-16T03:11:13.713Z,2.6
2019-04-16T03:12:13.149Z,3.4
2019-04-16T03:13:13.356Z,2
2019-04-16T03:14:12.374Z,2.8
2019-04-16T03:15:12.394Z,2.1
2019-04-16T03:16:12.578Z,3.3
2019-04-16T03:17:12.400Z,3.2
2019-04-16T03:18:14.839Z,2.9
2019-04-16T03:19:18.820Z,2.6
2019-04-16T03:20:13.962Z,3.3
2019-04-16T03:21:12.868Z,2.7
2019-04-16T03:22:12.690Z,3
2019-04-16T03:23:12.816Z,3.4
2019-04-16T03:24:12.726Z,2.7
2019-04-16T03:25:14.224Z,2.3
2019-04-16T03:26:16.137Z,3.2
2019-04-16T03:27:14.032Z,3.5
2019-04-16T03:28:12.956Z,2.6
2019-04-16T03:29:13.105Z,3.1
2019-04-16T03:30:13.225Z,2.6
2019-04-16T03:31:19.264Z,3.7
2019-04-16T03:32:15.156Z,2.7
2019-04-16T03:33:15.074Z,3.1
2019-04-16T03:34:14.634Z,3.1
2019-04-16T03:35:14.561Z,3
2019-04-16T03:36:13.534Z,2.9
2019-04-16T03:37:13.606Z,2.7
2019-04-16T03:38:13.666Z,2.6
2019-04-16T03:39:14.027Z,3.3
2019-04-16T03:40:16.818Z,3.1
2019-04-16T03:41:15.057Z,2.1
2019-04-16T03:42:13.940Z,3
2019-04-16T03:43:13.791Z,2.9
2019-04-16T03:44:14.016Z,3.2
2019-04-16T03:45:13.916Z,2.8
2019-04-16T03:46:14.341Z,2.9
2019-04-16T03:47:15.602Z,2.9
2019-04-16T03:48:15.251Z,3.3
2019-04-16T03:49:14.292Z,2.6
2019-04-16T03:50:14.729Z,2.6
2019-04-16T03:51:14.652Z,2.5
2019-04-16T03:52:14.692Z,3
2019-04-16T03:53:17.428Z,2.2
2019-04-16T03:54:18.781Z,2.4
2019-04-16T03:55:16.092Z,2.1
2019-04-16T03:56:14.850Z,2.6
2019-04-16T03:57:14.926Z,2.9
2019-04-16T03:58:15.117Z,2.6
2019-04-16T03:59:15.129Z,2.9
2019-04-16T04:00:15.092Z,2.3
2019-04-16T04:01:15.516Z,2.5
2019-04-16T04:02:17.127Z,3.3
2019-04-16T04:03:16.384Z,3.4
2019-04-16T04:04:15.267Z,2.4
2019-04-16T04:05:15.397Z,2.5
2019-04-16T04:06:15.464Z,3.3
2019-04-16T04:07:15.661Z,2.4
2019-04-16T04:08:17.337Z,2.4
2019-04-16T04:09:15.524Z,3.6
2019-04-16T04:10:29.366Z,3.1
2019-04-16T04:11:16.696Z,3
2019-04-16T04:12:15.937Z,2.5
2019-04-16T04:13:18.325Z,2.4
2019-04-16T04:14:21.882Z,2.8
2019-04-16T04:15:16.958Z,2.5
2019-04-16T04:16:16.194Z,2.5
2019-04-16T04:17:16.067Z,4.2
2019-04-16T04:18:16.096Z,2.8
2019-04-16T04:19:16.189Z,2.7
2019-04-16T04:20:18.051Z,2.8
2019-04-16T04:21:20.892Z,2.8
2019-04-16T04:22:17.392Z,2.7
2019-04-16T04:23:16.780Z,2.6
2019-04-16T04:24:16.633Z,3
2019-04-16T04:25:16.652Z,2.6
2019-04-16T04:26:16.642Z,2.6
2019-04-16T04:27:18.899Z,3.3
2019-04-16T04:28:19.598Z,3
2019-04-16T04:29:20.622Z,2.8
2019-04-16T04:30:18.058Z,3.6
2019-04-16T04:31:17.158Z,4.1
2019-04-16T04:32:17.100Z,2.4
2019-04-16T04:33:17.152Z,2.7
2019-04-16T04:34:17.537Z,2.8
2019-04-16T04:35:20.663Z,3.3
2019-04-16T04:36:19.196Z,3
2019-04-16T04:37:18.436Z,2.6
2019-04-16T04:38:17.655Z,2.4
2019-04-16T04:39:17.852Z,2.8
2019-04-16T04:40:17.851Z,2.4
2019-04-16T04:41:19.820Z,2.7
2019-04-16T04:42:19.718Z,3.4
2019-04-16T04:43:17.964Z,2.2
2019-04-16T04:44:18.005Z,3.1
2019-04-16T04:45:17.907Z,3.1
2019-04-16T04:46:18.021Z,3
2019-04-16T04:47:19.653Z,3.2
2019-04-16T04:48:22.937Z,2.6
2019-04-16T04:49:19.530Z,3.2
2019-04-16T04:50:18.311Z,3.4
2019-04-16T04:51:18.353Z,3.9
2019-04-16T04:52:18.397Z,3.2
2019-04-16T04:53:19.693Z,4
2019-04-16T04:54:22.309Z,4.3
2019-04-16T04:55:19.606Z,4.7
2019-04-16T04:56:20.185Z,5.7
2019-04-16T04:57:18.814Z,6
2019-04-16T04:58:18.952Z,7.2
2019-04-16T04:59:18.801Z,6.6
2019-04-16T05:00:18.869Z,11.5
2019-04-16T05:01:18.818Z,8.1
2019-04-16T05:02:18.902Z,8.5
2019-04-16T05:03:18.980Z,8.5
2019-04-16T05:04:20.783Z,7.7
2019-04-16T05:05:23.996Z,10.7
2019-04-16T05:06:20.201Z,10.1
2019-04-16T05:07:20.296Z,9.5
2019-04-16T05:08:19.308Z,8.9
2019-04-16T05:09:19.754Z,8.3
2019-04-16T05:10:19.395Z,6.2
2019-04-16T05:11:19.422Z,7.9
2019-04-16T05:12:21.244Z,6.9
2019-04-16T05:13:23.859Z,7.3
2019-04-16T05:14:20.537Z,8.6
2019-04-16T05:15:20.717Z,11
2019-04-16T05:16:19.653Z,9.3
2019-04-16T05:17:19.678Z,8.3
2019-04-16T05:18:19.808Z,9.8
2019-04-16T05:19:20.204Z,8
2019-04-16T05:20:19.923Z,9.5
2019-04-16T05:21:19.945Z,9.9
2019-04-16T05:22:21.969Z,10.3
2019-04-16T05:23:24.608Z,10.3
2019-04-16T05:24:21.384Z,10.5
2019-04-16T05:25:20.287Z,8.9
2019-04-16T05:26:20.804Z,7.6
2019-04-16T05:27:20.535Z,8.4
2019-04-16T05:28:20.331Z,9.8
2019-04-16T05:29:20.810Z,9.6
2019-04-16T05:30:21.846Z,8.3
2019-04-16T05:31:24.075Z,9.6
2019-04-16T05:32:21.565Z,8.2
2019-04-16T05:33:21.657Z,7.2
2019-04-16T05:34:20.821Z,7.9
2019-04-16T05:35:20.758Z,9
2019-04-16T05:36:21.895Z,9.5
2019-04-16T05:37:21.028Z,10.9
2019-04-16T05:38:23.528Z,8.9
2019-04-16T05:39:24.334Z,6.7
2019-04-16T05:40:22.558Z,7.3
2019-04-16T05:41:22.988Z,7.2
2019-04-16T05:42:22.362Z,6.6
2019-04-16T05:43:22.955Z,8.2
2019-04-16T05:44:22.566Z,7.7
2019-04-16T05:45:22.423Z,6.3
2019-04-16T05:46:21.535Z,8.7
2019-04-16T05:47:22.882Z,10
2019-04-16T05:48:23.164Z,6.3
2019-04-16T05:49:25.621Z,8.8
2019-04-16T05:50:28.475Z,7.8
2019-04-16T05:51:23.739Z,8.2
2019-04-16T05:52:22.779Z,9.9
2019-04-16T05:53:21.919Z,8.7
2019-04-16T05:54:21.781Z,7.5
2019-04-16T05:55:21.806Z,6.1
2019-04-16T05:56:23.696Z,9
2019-04-16T05:57:26.087Z,6.9
2019-04-16T05:58:23.340Z,5.9
2019-04-16T05:59:23.299Z,9
2019-04-16T06:00:22.430Z,5.2
2019-04-16T06:01:23.619Z,6.6
2019-04-16T06:02:22.809Z,7.8
2019-04-16T06:03:22.570Z,7.4
2019-04-16T06:04:24.674Z,6.9
2019-04-16T06:05:26.735Z,6.1
2019-04-16T06:06:23.672Z,8
2019-04-16T06:07:27.851Z,7.1
2019-04-16T06:08:23.776Z,6.1
2019-04-16T06:09:23.030Z,5.7
2019-04-16T06:10:23.701Z,6.1
2019-04-16T06:11:28.923Z,8.3
2019-04-16T06:12:24.453Z,8.1
2019-04-16T06:13:22.968Z,7.6
2019-04-16T06:14:25.392Z,7.5
2019-04-16T06:15:24.007Z,7.3
2019-04-16T06:16:25.123Z,7.2
2019-04-16T06:17:25.396Z,7.5
2019-04-16T06:18:30.816Z,5.5
2019-04-16T06:19:26.481Z,6.3
2019-04-16T06:20:23.342Z,5.6
2019-04-16T06:21:25.716Z,6.7
2019-04-16T06:22:28.086Z,6.7
2019-04-16T06:23:24.513Z,6.2
2019-04-16T06:24:25.691Z,6.1
2019-04-16T06:25:25.599Z,5.2
2019-04-16T06:26:23.746Z,7.6
2019-04-16T06:27:24.672Z,5.1
2019-04-16T06:28:24.200Z,6.5
2019-04-16T06:29:25.332Z,6.2
2019-04-16T06:30:25.034Z,6.2
2019-04-16T06:31:25.942Z,6
2019-04-16T06:32:27.990Z,9.1
2019-04-16T06:33:25.907Z,6.7
2019-04-16T06:34:25.061Z,6.8
2019-04-16T06:35:24.577Z,5.7
2019-04-16T06:36:24.622Z,4.4
2019-04-16T06:37:27.056Z,7.9
2019-04-16T06:38:25.968Z,5.1
2019-04-16T06:39:26.491Z,7.2
2019-04-16T06:40:25.615Z,5
2019-04-16T06:41:40.160Z,8.3
2019-04-16T06:42:25.487Z,5.3
2019-04-16T06:43:26.955Z,6.3
2019-04-16T06:44:29.725Z,5.7
2019-04-16T06:45:25.699Z,8.2
2019-04-16T06:46:24.891Z,5.6
2019-04-16T06:47:24.690Z,6
2019-04-16T06:48:24.951Z,5.8
2019-04-16T06:49:26.352Z,6.1
2019-04-16T06:50:31.819Z,6.9
2019-04-16T06:51:26.075Z,7.7
2019-04-16T06:52:25.442Z,4.9
2019-04-16T06:53:26.326Z,6.1
2019-04-16T06:54:28.992Z,8.8
2019-04-16T06:55:25.721Z,6.4
2019-04-16T06:56:24.876Z,7.6
2019-04-16T06:57:26.852Z,6.5
2019-04-16T06:58:27.428Z,5.2
2019-04-16T06:59:29.402Z,6.3
2019-04-16T07:00:26.755Z,6.7
2019-04-16T07:01:26.413Z,11.9
2019-04-16T07:02:25.143Z,6.4
2019-04-16T07:03:26.987Z,8.1
2019-04-16T07:04:29.445Z,6
2019-04-16T07:05:26.320Z,6.5
2019-04-16T07:06:27.946Z,8.2
2019-04-16T07:07:37.817Z,6.7
2019-04-16T07:08:37.346Z,5.3
2019-04-16T07:09:26.594Z,7
2019-04-16T07:10:28.603Z,6.7
2019-04-16T07:11:28.466Z,8.3
2019-04-16T07:12:25.442Z,5.2
2019-04-16T07:13:25.990Z,5.3
2019-04-16T07:14:25.492Z,4.6
2019-04-16T07:15:28.361Z,4
2019-04-16T07:16:29.779Z,5.2
2019-04-16T07:17:25.848Z,5.3
2019-04-16T07:18:27.048Z,4.3
2019-04-16T07:19:27.217Z,6.4
2019-04-16T07:21:26.451Z,6.2
2019-04-16T07:21:41.895Z,6.8
2019-04-16T07:22:42.643Z,5
2019-04-16T07:23:40.920Z,4.4
2019-04-16T07:24:41.638Z,5.3
2019-04-16T07:25:42.836Z,5.3
2019-04-16T07:26:46.220Z,5.5
2019-04-16T07:29:48.310Z,6.7
2019-04-16T07:30:06.505Z,5.6
2019-04-16T07:31:04.792Z,6.6
2019-04-16T07:32:04.978Z,5.5
2019-04-16T07:33:04.165Z,8.1
2019-04-16T07:34:04.498Z,7.1
2019-04-16T07:35:07.962Z,4.9
2019-04-16T07:36:04.996Z,4.8
2019-04-16T07:37:04.157Z,5.6
2019-04-16T07:38:06.442Z,5.3
2019-04-16T07:39:07.296Z,8
2019-04-16T07:40:08.246Z,8.6
2019-04-16T07:41:10.604Z,9.1
2019-04-16T07:42:11.298Z,7.4
2019-04-16T07:43:10.283Z,10.4
2019-04-16T07:44:09.981Z,7.6
2019-04-16T07:45:11.326Z,7.6
2019-04-16T07:46:11.113Z,6
2019-04-16T07:47:10.344Z,12.2
2019-04-16T07:48:09.203Z,7.2
2019-04-16T07:49:07.050Z,6.7
2019-04-16T07:50:08.494Z,6
2019-04-16T07:51:12.016Z,5.7
2019-04-16T07:52:25.846Z,5.1
2019-04-16T07:53:06.752Z,7.3
2019-04-16T07:54:05.693Z,6.2
2019-04-16T07:55:08.024Z,4.9
2019-04-16T07:56:12.921Z,5.2
2019-04-16T07:57:10.921Z,3.9
2019-04-16T07:58:07.131Z,6.6
2019-04-16T07:59:06.396Z,8.1
2019-04-16T08:00:11.901Z,6.3
2019-04-16T08:01:11.060Z,5.9
2019-04-16T08:02:06.719Z,5.4
2019-04-16T08:03:07.215Z,4.3
2019-04-16T08:04:05.387Z,7.8
2019-04-16T08:05:08.616Z,3.9
2019-04-16T08:06:07.044Z,4.4
2019-04-16T08:07:07.783Z,6.3
2019-04-16T08:08:05.159Z,7.5
2019-04-16T08:09:06.326Z,7.7
2019-04-16T08:10:06.656Z,5.1
2019-04-16T08:11:10.850Z,9.4
2019-04-16T08:12:10.531Z,6.9
2019-04-16T08:13:07.939Z,5.4
2019-04-16T08:14:09.907Z,4.4
2019-04-16T08:15:14.123Z,4.9
2019-04-16T08:16:08.977Z,5.6
2019-04-16T08:17:09.889Z,7
2019-04-16T08:18:06.966Z,5.2
2019-04-16T08:19:06.183Z,7.2
2019-04-16T08:20:07.748Z,8
2019-04-16T08:21:10.697Z,8
2019-04-16T08:22:06.308Z,5.3
2019-04-16T08:23:07.802Z,5.3
2019-04-16T08:24:08.841Z,12.6
2019-04-16T08:25:08.689Z,6.2
2019-04-16T08:26:11.261Z,8.1
2019-04-16T08:27:09.783Z,5.8
2019-04-16T08:28:08.000Z,7.9
2019-04-16T08:29:07.759Z,7.6
2019-04-16T08:30:09.594Z,6.8
2019-04-16T08:31:12.153Z,9.6
2019-04-16T08:32:08.073Z,9.7
2019-04-16T08:33:10.491Z,10.9
2019-04-16T08:34:11.361Z,8.2
2019-04-16T08:35:09.836Z,8.1
2019-04-16T08:36:07.151Z,5.5
2019-04-16T08:37:08.234Z,5
2019-04-16T08:38:05.245Z,5.2
2019-04-16T08:39:07.929Z,5.8
2019-04-16T08:40:08.734Z,10.4
2019-04-16T08:41:06.988Z,7.7
2019-04-16T08:42:08.959Z,4.5
2019-04-16T08:43:06.884Z,6.2
2019-04-16T08:44:09.540Z,7.6
2019-04-16T08:45:10.603Z,4.9
2019-04-16T08:46:15.555Z,5.3
2019-04-16T08:47:11.261Z,6.9
2019-04-16T08:48:10.050Z,5
2019-04-16T08:49:09.186Z,9.6
2019-04-16T08:50:11.673Z,6.1
2019-04-16T08:51:08.943Z,5.8
2019-04-16T08:52:15.604Z,8.7
2019-04-16T08:53:07.622Z,6
2019-04-16T08:54:09.090Z,11.4
2019-04-16T08:55:11.592Z,5
2019-04-16T08:56:14.259Z,4.3
2019-04-16T08:57:08.096Z,7.6
2019-04-16T08:58:08.414Z,9.8
2019-04-16T08:59:10.007Z,5.3
2019-04-16T09:00:06.694Z,10.3
2019-04-16T09:01:07.559Z,7.6
2019-04-16T09:02:08.470Z,4.2
2019-04-16T09:03:08.758Z,4.5
2019-04-16T09:04:20.432Z,6.7
2019-04-16T09:05:19.140Z,7.2
2019-04-16T09:06:42.542Z,7.2
2019-04-16T09:07:11.882Z,5.3
2019-04-16T09:08:12.806Z,4.1
2019-04-16T09:09:13.330Z,6
2019-04-16T09:10:17.979Z,7.6
2019-04-16T09:11:22.136Z,6.7
2019-04-16T09:12:09.879Z,4.5
2019-04-16T09:13:05.994Z,9.8
2019-04-16T09:14:08.215Z,6.9
2019-04-16T09:15:06.515Z,5.5
2019-04-16T09:16:06.511Z,5.6
2019-04-16T09:17:09.843Z,5.2
2019-04-16T09:18:08.827Z,7.8
2019-04-16T09:19:06.960Z,7.9
2019-04-16T09:20:06.679Z,6.5
2019-04-16T09:21:10.234Z,5.5
2019-04-16T09:22:15.426Z,7.7
2019-04-16T09:23:08.640Z,5.5
2019-04-16T09:24:08.736Z,7.4
2019-04-16T09:25:12.248Z,5.9
2019-04-16T09:26:13.885Z,6.2
2019-04-16T09:27:16.532Z,6.1
2019-04-16T09:28:23.708Z,8.5
2019-04-16T09:29:10.940Z,4.8
2019-04-16T09:30:09.753Z,6.6
2019-04-16T09:31:10.075Z,5.6
2019-04-16T09:32:07.155Z,4.9
2019-04-16T09:33:08.070Z,5.6
2019-04-16T09:34:13.686Z,5.2
2019-04-16T09:35:10.698Z,6.7
2019-04-16T09:36:13.457Z,4.7
2019-04-16T09:39:07.436Z,6.5
2019-04-16T09:39:31.555Z,7
2019-04-16T09:40:33.286Z,5.6
2019-04-16T09:41:30.566Z,8.9
2019-04-16T09:42:46.626Z,6.4
2019-04-16T09:43:47.701Z,6.3
2019-04-16T09:44:23.139Z,5.7
2019-04-16T09:45:25.151Z,4.8
2019-04-16T09:46:46.532Z,6.7
2019-04-16T09:47:24.026Z,6.4
2019-04-16T09:48:24.373Z,5.1
2019-04-16T09:49:22.871Z,7
2019-04-16T09:50:22.363Z,5.9
2019-04-16T09:51:25.198Z,7.6
2019-04-16T09:52:24.359Z,5.7
2019-04-16T09:53:32.478Z,7
2019-04-16T09:54:23.986Z,6.3
2019-04-16T09:55:22.358Z,8
2019-04-16T09:56:26.385Z,5.3
2019-04-16T09:57:30.828Z,3.8
2019-04-16T09:58:24.682Z,6.4
2019-04-16T09:59:27.473Z,5.8
2019-04-16T10:00:23.805Z,6.6
2019-04-16T10:01:23.679Z,5
2019-04-16T10:02:23.236Z,5.3
2019-04-16T10:03:24.529Z,5
2019-04-16T10:04:23.757Z,4.1
2019-04-16T10:05:23.095Z,5.5
2019-04-16T10:06:23.972Z,7.5
2019-04-16T10:07:23.298Z,4.4
2019-04-16T10:08:23.316Z,5.4
2019-04-16T10:09:22.781Z,8.1
2019-04-16T10:10:23.923Z,6.2
2019-04-16T10:11:24.271Z,5.9
2019-04-16T10:12:22.705Z,5.4
2019-04-16T10:13:30.627Z,5.3
2019-04-16T10:14:23.539Z,6.1
2019-04-16T10:15:23.204Z,6.9
2019-04-16T10:16:23.071Z,9
2019-04-16T10:17:23.571Z,5
2019-04-16T10:18:22.867Z,3.9
2019-04-16T10:19:23.605Z,5
2019-04-16T10:20:22.656Z,4.9
2019-04-16T10:21:23.898Z,5.1
2019-04-16T10:22:24.385Z,5.3
2019-04-16T10:23:23.222Z,6.4
2019-04-16T10:24:22.966Z,6
2019-04-16T10:25:24.132Z,4.9
2019-04-16T10:26:23.277Z,5.4
2019-04-16T10:27:24.184Z,4.9
2019-04-16T10:28:23.918Z,6.2
2019-04-16T10:29:23.213Z,6.1
2019-04-16T10:30:23.423Z,5.4
2019-04-16T10:31:23.404Z,6.2
2019-04-16T10:32:23.129Z,4.6
2019-04-16T10:33:23.510Z,9.5
2019-04-16T10:34:24.512Z,3.7
2019-04-16T10:35:23.826Z,6.3
2019-04-16T10:36:23.103Z,4.6
2019-04-16T10:37:27.589Z,7.8
2019-04-16T10:38:23.228Z,5.7
2019-04-16T10:39:23.729Z,6.5
2019-04-16T10:40:24.171Z,11.7
2019-04-16T10:41:23.766Z,5.2
2019-04-16T10:42:23.215Z,4.1
2019-04-16T10:43:23.787Z,4.2
2019-04-16T10:44:36.329Z,7.8
2019-04-16T10:46:39.388Z,5.1
2019-04-16T10:46:54.416Z,5.8
2019-04-16T10:48:39.001Z,5
2019-04-16T10:48:55.418Z,5.1
2019-04-16T10:49:55.428Z,4.4
2019-04-16T10:50:55.217Z,7.1
2019-04-16T10:51:53.533Z,4.4
2019-04-16T10:52:55.779Z,4.5
2019-04-16T10:53:55.620Z,6
2019-04-16T10:54:56.161Z,6.1
2019-04-16T10:55:53.602Z,4.9
2019-04-16T10:57:48.336Z,5.5
2019-04-16T10:58:03.247Z,6.7
2019-04-16T10:59:03.738Z,6.5
2019-04-16T11:00:02.848Z,4.8
2019-04-16T11:01:02.964Z,3.9
2019-04-16T11:06:28.887Z,3.6
2019-04-16T11:06:45.013Z,6.2
2019-04-16T11:07:43.764Z,7.8
2019-04-16T11:08:43.138Z,6.1
2019-04-16T11:09:43.967Z,7
2019-04-16T11:10:43.703Z,5.9
2019-04-16T11:11:45.878Z,4.3
2019-04-16T11:12:44.600Z,5.8
2019-04-16T11:13:58.290Z,6.5
2019-04-16T11:16:28.836Z,6.5
2019-04-16T11:17:15.130Z,4.8
2019-04-16T11:18:13.771Z,6.6
2019-04-16T11:19:13.412Z,8.6
2019-04-16T11:20:17.373Z,4.6
2019-04-16T11:21:13.324Z,5.9
2019-04-16T11:22:15.418Z,6.9
2019-04-16T11:23:13.729Z,7
2019-04-16T11:24:13.446Z,9.9
2019-04-16T11:25:14.902Z,6.1
2019-04-16T11:26:14.912Z,4.2
2019-04-16T11:27:14.931Z,6
2019-04-16T11:28:14.541Z,6.4
2019-04-16T11:29:14.534Z,5.3
2019-04-16T11:30:13.346Z,4.2
2019-04-16T11:31:14.547Z,4.3
2019-04-16T11:32:13.473Z,5.4
2019-04-16T11:33:14.173Z,5.4
2019-04-16T11:34:14.957Z,6.6
2019-04-16T11:35:16.929Z,4.8
2019-04-16T11:36:19.178Z,7
2019-04-16T11:37:14.830Z,3.3
2019-04-16T11:38:12.987Z,4.6
2019-04-16T11:39:14.671Z,11.5
2019-04-16T11:40:14.435Z,6.1
2019-04-16T11:41:50.934Z,10.9
2019-04-16T11:42:13.711Z,6.5
2019-04-16T11:43:13.359Z,5.9
2019-04-16T11:44:16.969Z,8.1
2019-04-16T11:45:13.852Z,5.8
2019-04-16T11:46:13.341Z,5.5
2019-04-16T11:47:15.298Z,7.6
2019-04-16T11:48:13.103Z,9.5
2019-04-16T11:49:13.914Z,5.8
2019-04-16T11:50:15.767Z,7.9
2019-04-16T11:51:14.214Z,5.3
2019-04-16T11:52:15.636Z,5.9
2019-04-16T11:53:14.168Z,7.1
2019-04-16T11:54:13.761Z,7.2
2019-04-16T11:55:13.811Z,6
2019-04-16T11:56:13.807Z,9.7
2019-04-16T11:57:13.638Z,9.7
2019-04-16T11:58:13.963Z,6.5
2019-04-16T11:59:12.700Z,7.4
2019-04-16T12:00:12.882Z,11.5
2019-04-16T12:01:14.199Z,7.5
2019-04-16T12:02:13.992Z,8.2
2019-04-16T12:03:14.719Z,7.9
2019-04-16T12:04:15.194Z,6.6
2019-04-16T12:05:14.266Z,6.4
2019-04-16T12:06:26.888Z,7.3
2019-04-16T12:07:13.570Z,7.4
2019-04-16T12:08:13.661Z,6.3
2019-04-16T12:09:12.477Z,6.5
2019-04-16T12:10:14.141Z,7.5
2019-04-16T12:11:13.190Z,7.7
2019-04-16T12:12:12.537Z,7.4
2019-04-16T12:13:12.446Z,6.6
2019-04-16T12:14:12.322Z,10.7
2019-04-16T12:15:13.632Z,8.3
2019-04-16T12:16:12.250Z,7.9
2019-04-16T12:17:12.580Z,6.2
2019-04-16T12:18:12.473Z,7.2
2019-04-16T12:19:12.193Z,8.1
2019-04-16T12:20:13.233Z,5.7
2019-04-16T12:21:12.005Z,7.7
2019-04-16T12:22:12.376Z,10.3
2019-04-16T12:23:12.321Z,6.6
2019-04-16T12:24:12.305Z,5
2019-04-16T12:25:12.538Z,6.3
2019-04-16T12:26:12.136Z,6.6
2019-04-16T12:27:13.170Z,6.6
2019-04-16T12:28:12.910Z,5.8
2019-04-16T12:29:12.900Z,6.5
2019-04-16T12:30:12.215Z,8.2
2019-04-16T12:31:16.180Z,5.4
2019-04-16T12:32:13.413Z,6.7
2019-04-16T12:33:14.094Z,6.3
2019-04-16T12:34:12.275Z,7
2019-04-16T12:35:11.888Z,8
2019-04-16T12:36:14.055Z,6.1
2019-04-16T12:37:12.545Z,7
2019-04-16T12:38:14.872Z,5.8
2019-04-16T12:39:18.316Z,6.7
2019-04-16T12:40:18.553Z,8.2
2019-04-16T12:41:12.464Z,6.7
2019-04-16T12:42:12.363Z,7.2
2019-04-16T12:43:15.726Z,6.6
2019-04-16T12:44:13.629Z,5.7
2019-04-16T12:45:11.898Z,5.8
2019-04-16T12:46:12.402Z,5.7
2019-04-16T12:47:12.222Z,6.5
2019-04-16T12:48:13.074Z,6.9
2019-04-16T12:49:11.647Z,7.2
2019-04-16T12:50:11.796Z,5.4
2019-04-16T12:51:12.469Z,6.1
2019-04-16T12:52:15.205Z,5.9
2019-04-16T12:53:12.686Z,8.7
2019-04-16T12:54:11.910Z,7.3
2019-04-16T12:55:12.328Z,6.2
2019-04-16T12:56:13.529Z,7.6
2019-04-16T12:57:14.430Z,7.1
2019-04-16T12:58:12.458Z,7.2
2019-04-16T12:59:12.757Z,6.4
2019-04-16T13:00:11.466Z,5.5
2019-04-16T13:01:11.176Z,8.2
2019-04-16T13:02:13.256Z,4.1
2019-04-16T13:03:17.475Z,7.8
2019-04-16T13:04:12.182Z,8.4
2019-04-16T13:05:12.689Z,6.6
2019-04-16T13:06:10.556Z,6.1
2019-04-16T13:07:11.037Z,8.5
2019-04-16T13:08:10.677Z,6.1
2019-04-16T13:09:10.456Z,7.1
2019-04-16T13:10:10.575Z,5.8
2019-04-16T13:11:11.560Z,6.8
2019-04-16T13:12:10.975Z,7.4
2019-04-16T13:13:10.765Z,6.7
2019-04-16T13:14:11.233Z,9.1
2019-04-16T13:15:13.066Z,8.9
2019-04-16T13:16:11.995Z,8.2
2019-04-16T13:17:15.056Z,7
2019-04-16T13:18:11.951Z,6.7
2019-04-16T13:19:12.253Z,8.2
2019-04-16T13:20:12.987Z,8
2019-04-16T13:21:12.529Z,6.3
2019-04-16T13:22:10.424Z,8.4
2019-04-16T13:23:10.937Z,8.6
2019-04-16T13:24:11.118Z,8.3
2019-04-16T13:25:11.618Z,7.9
2019-04-16T13:26:12.807Z,7
2019-04-16T13:27:11.186Z,9.3
2019-04-16T13:28:10.269Z,5.2
2019-04-16T13:29:11.516Z,5.5
2019-04-16T13:30:11.757Z,9.8
2019-04-16T13:31:10.732Z,5.3
2019-04-16T13:32:11.270Z,4.8
2019-04-16T13:33:11.758Z,6.4
2019-04-16T13:34:10.251Z,6.6
2019-04-16T13:35:10.842Z,8
2019-04-16T13:36:10.829Z,7.3
2019-04-16T13:37:10.305Z,5.3
2019-04-16T13:38:10.410Z,5.4
2019-04-16T13:39:11.787Z,5.9
2019-04-16T13:40:10.585Z,5.5
2019-04-16T13:41:10.244Z,7.6
2019-04-16T13:42:10.257Z,6.6
2019-04-16T13:43:10.213Z,5.6
2019-04-16T13:44:10.433Z,8.1
2019-04-16T13:45:17.452Z,6.9
2019-04-16T13:46:11.836Z,6.5
2019-04-16T13:47:09.480Z,7.5
2019-04-16T13:48:16.336Z,6.6
2019-04-16T13:49:10.804Z,6.7
2019-04-16T13:50:10.580Z,6.8
2019-04-16T13:51:12.349Z,6.9
2019-04-16T13:52:11.162Z,5.5
2019-04-16T13:53:09.634Z,6
2019-04-16T13:54:10.155Z,6
2019-04-16T13:55:10.749Z,7.3
2019-04-16T13:56:10.628Z,7.3
2019-04-16T13:57:10.965Z,5.6
2019-04-16T13:58:10.272Z,5
2019-04-16T13:59:10.116Z,6.5
2019-04-16T14:00:10.614Z,5.9